地図

経路データ

SID SEASON NUMBER BASIN SUBBASIN NAME ISO_TIME NATURE LAT LON WMO_WIND WMO_PRES WMO_AGENCY TRACK_TYPE DIST2LAND LANDFALL IFLAG USA_AGENCY USA_ATCF_ID USA_LAT USA_LON USA_RECORD USA_STATUS USA_WIND USA_PRES USA_SSHS USA_R34_NE USA_R34_SE USA_R34_SW USA_R34_NW USA_R50_NE USA_R50_SE USA_R50_SW USA_R50_NW USA_R64_NE USA_R64_SE USA_R64_SW USA_R64_NW USA_POCI USA_ROCI USA_RMW USA_EYE TOKYO_LAT TOKYO_LON TOKYO_GRADE TOKYO_WIND TOKYO_PRES TOKYO_R50_DIR TOKYO_R50_LONG TOKYO_R50_SHORT TOKYO_R30_DIR TOKYO_R30_LONG TOKYO_R30_SHORT TOKYO_LAND CMA_LAT CMA_LON CMA_CAT CMA_WIND CMA_PRES HKO_LAT HKO_LON HKO_CAT HKO_WIND HKO_PRES NEWDELHI_LAT NEWDELHI_LON NEWDELHI_GRADE NEWDELHI_WIND NEWDELHI_PRES NEWDELHI_CI NEWDELHI_DP NEWDELHI_POCI REUNION_LAT REUNION_LON REUNION_TYPE REUNION_WIND REUNION_PRES REUNION_TNUM REUNION_CI REUNION_RMW REUNION_R34_NE REUNION_R34_SE REUNION_R34_SW REUNION_R34_NW REUNION_R50_NE REUNION_R50_SE REUNION_R50_SW REUNION_R50_NW REUNION_R64_NE REUNION_R64_SE REUNION_R64_SW REUNION_R64_NW BOM_LAT BOM_LON BOM_TYPE BOM_WIND BOM_PRES BOM_TNUM BOM_CI BOM_RMW BOM_R34_NE BOM_R34_SE BOM_R34_SW BOM_R34_NW BOM_R50_NE BOM_R50_SE BOM_R50_SW BOM_R50_NW BOM_R64_NE BOM_R64_SE BOM_R64_SW BOM_R64_NW BOM_ROCI BOM_POCI BOM_EYE BOM_POS_METHOD BOM_PRES_METHOD NADI_LAT NADI_LON NADI_CAT NADI_WIND NADI_PRES WELLINGTON_LAT WELLINGTON_LON WELLINGTON_WIND WELLINGTON_PRES DS824_LAT DS824_LON DS824_STAGE DS824_WIND DS824_PRES TD9636_LAT TD9636_LON TD9636_STAGE TD9636_WIND TD9636_PRES TD9635_LAT TD9635_LON TD9635_WIND TD9635_PRES TD9635_ROCI NEUMANN_LAT NEUMANN_LON NEUMANN_CLASS NEUMANN_WIND NEUMANN_PRES MLC_LAT MLC_LON MLC_CLASS MLC_WIND MLC_PRES USA_GUST BOM_GUST BOM_GUST_PER REUNION_GUST REUNION_GUST_PER USA_SEAHGT USA_SEARAD_NE USA_SEARAD_SE USA_SEARAD_SW USA_SEARAD_NW STORM_SPEED STORM_DIR
1944050S10074 1944 15 SI MM NOT_NAMED 1944-02-18 18:00:00 NR -10.2000 74.0000 main 1944 1944 __________O___ -1 -10.2000 74.0000 1 6 204
1944050S10074 1944 15 SI MM NOT_NAMED 1944-02-18 21:00:00 NR -10.4937 73.8673 main 1980 1980 __________P___ -1 -10.4937 73.8673 1 7 204
1944050S10074 1944 15 SI MM NOT_NAMED 1944-02-19 00:00:00 NR -10.7900 73.7275 main 2004 1976 __________P___ -1 -10.7900 73.7275 1 7 206
1944050S10074 1944 15 SI MM NOT_NAMED 1944-02-19 03:00:00 NR -11.0912 73.5741 main 1976 1940 __________P___ -1 -11.0912 73.5741 1 7 208
1944050S10074 1944 15 SI MM NOT_NAMED 1944-02-19 06:00:00 TS -11.4000 73.4000 main 1940 1904 _________OO___ -1 -11.4000 73.4000 TC 25 -11.4000 73.4000 1 7 210
1944050S10074 1944 15 SI MM NOT_NAMED 1944-02-19 09:00:00 TS -11.7086 73.2032 main 1904 1868 _________PP___ -1 -11.6900 73.2050 TC 25 -11.7179 73.2023 1 7 212
1944050S10074 1944 15 SI MM NOT_NAMED 1944-02-19 12:00:00 TS -12.0243 72.9958 main 1868 1832 _________OP___ -1 -12.0000 73.0000 TC 25 -12.0426 72.9926 1 8 212
1944050S10074 1944 15 SI MM NOT_NAMED 1944-02-19 15:00:00 TS -12.3568 72.7858 main 1826 1791 _________PP___ -1 -12.3425 72.7850 TC 25 -12.3710 72.7866 1 8 210
1944050S10074 1944 15 SI MM NOT_NAMED 1944-02-19 18:00:00 TS -12.7000 72.6000 main 1791 1765 _________OO___ -1 -12.7000 72.6000 TC 25 -12.7000 72.6000 1 8 204
1944050S10074 1944 15 SI MM NOT_NAMED 1944-02-19 21:00:00 TS -13.0412 72.4788 main 1765 1733 _________PP___ -1 -13.0575 72.4924 TC 25 -13.0249 72.4653 1 7 198
1944050S10074 1944 15 SI MM NOT_NAMED 1944-02-20 00:00:00 TS -13.3749 72.3748 main 1733 1708 _________OP___ -1 -13.4000 72.4000 TC 25 -13.3498 72.3495 1 7 199
1944050S10074 1944 15 SI MM NOT_NAMED 1944-02-20 03:00:00 TS -13.6912 72.2495 main 1699 1674 _________PP___ -1 -13.7075 72.2650 TC 25 -13.6749 72.2340 1 7 203
1944050S10074 1944 15 SI MM NOT_NAMED 1944-02-20 06:00:00 TS -14.0000 72.1000 main 1674 1639 _________OO___ -1 -14.0000 72.1000 TC 25 -14.0000 72.1000 1 7 208
1944050S10074 1944 15 SI MM NOT_NAMED 1944-02-20 09:00:00 TS -14.3047 71.9125 main 1639 1605 _________PP___ -1 -14.2925 71.9074 TC 25 -14.3169 71.9175 1 7 212
1944050S10074 1944 15 SI MM NOT_NAMED 1944-02-20 12:00:00 TS -14.6175 71.7075 main 1605 1572 _________OP___ -1 -14.6000 71.7000 TC 25 -14.6351 71.7149 1 8 212
1944050S10074 1944 15 SI MM NOT_NAMED 1944-02-20 15:00:00 TS -14.9516 71.5024 main 1567 1534 _________PP___ -1 -14.9425 71.5000 TC 25 -14.9607 71.5049 1 8 210
1944050S10074 1944 15 SI MM NOT_NAMED 1944-02-20 18:00:00 TS -15.3000 71.3000 main 1534 1501 _________OO___ -1 -15.3000 71.3000 TC 25 -15.3000 71.3000 1 8 209
1944050S10074 1944 15 SI MM NOT_NAMED 1944-02-20 21:00:00 TS -15.6475 71.1050 main 1501 1464 _________PP___ -1 -15.6425 71.0925 TC 25 -15.6524 71.1176 1 8 207
1944050S10074 1944 15 SI MM NOT_NAMED 1944-02-21 00:00:00 TS -16.0100 70.9211 main 1464 1439 _________OP___ -1 -16.0000 70.9000 TC 25 -16.0199 70.9421 1 8 204
1944050S10074 1944 15 SI MM NOT_NAMED 1944-02-21 03:00:00 TS -16.3974 70.7603 main 1439 1404 _________PP___ -1 -16.3925 70.7499 TC 25 -16.4024 70.7707 1 9 201
1944050S10074 1944 15 SI MM NOT_NAMED 1944-02-21 06:00:00 TS -16.8000 70.6000 main 1404 1370 _________OO___ -1 -16.8000 70.6000 TC 25 -16.8000 70.6000 1 9 203
1944050S10074 1944 15 SI MM NOT_NAMED 1944-02-21 09:00:00 TS -17.2016 70.4104 main 1370 1338 _________PP___ -1 -17.1925 70.4000 TC 25 -17.2106 70.4208 1 9 204
1944050S10074 1944 15 SI MM NOT_NAMED 1944-02-21 12:00:00 TS -17.6175 70.2212 main 1338 1317 _________OP___ -1 -17.6000 70.2000 TC 25 -17.6350 70.2424 1 9 202
1944050S10074 1944 15 SI MM NOT_NAMED 1944-02-21 15:00:00 TS -18.0584 70.0551 main 1314 1284 _________PP___ -1 -18.0500 70.0424 TC 25 -18.0669 70.0677 1 9 199
1944050S10074 1944 15 SI MM NOT_NAMED 1944-02-21 18:00:00 TS -18.5000 69.9000 main 1284 1266 _________OO___ -1 -18.5000 69.9000 TC 25 -18.5000 69.9000 1 9 199
1944050S10074 1944 15 SI MM NOT_NAMED 1944-02-21 21:00:00 TS -18.9023 69.7461 main 1256 1239 _________PP___ -1 -18.9000 69.7499 TC 25 -18.9046 69.7424 1 9 200
1944050S10074 1944 15 SI MM NOT_NAMED 1944-02-22 00:00:00 TS -19.3062 69.5959 main 1239 1224 _________OP___ -1 -19.3000 69.6000 TC 25 -19.3124 69.5919 1 9 199
1944050S10074 1944 15 SI MM NOT_NAMED 1944-02-22 03:00:00 TS -19.7333 69.4477 main 1213 1199 _________PP___ -1 -19.7275 69.4499 TC 25 -19.7390 69.4454 1 9 197
1944050S10074 1944 15 SI MM NOT_NAMED 1944-02-22 06:00:00 TS -20.2000 69.3000 main 1199 1187 _________OO___ -1 -20.2000 69.3000 TC 25 -20.2000 69.3000 1 10 196
1944050S10074 1944 15 SI MM NOT_NAMED 1944-02-22 09:00:00 TS -20.7144 69.1459 main 1177 1167 _________PP___ -1 -20.7350 69.1499 TC 25 -20.6938 69.1418 1 11 195
1944050S10074 1944 15 SI MM NOT_NAMED 1944-02-22 12:00:00 TS -21.2626 68.9925 main 1169 1153 _________OP___ -1 -21.3000 69.0000 TC 25 -21.2251 68.9849 1 11 195
1944050S10074 1944 15 SI MM NOT_NAMED 1944-02-22 15:00:00 TS -21.8144 68.8390 main 1153 1148 _________PP___ -1 -21.8350 68.8424 TC 25 -21.7939 68.8355 1 12 193
1944050S10074 1944 15 SI MM NOT_NAMED 1944-02-22 18:00:00 TS -22.4000 68.7000 main 1152 1148 _________OO___ -1 -22.4000 68.7000 TC 25 -22.4000 68.7000 1 12 191
1944050S10074 1944 15 SI MM NOT_NAMED 1944-02-22 21:00:00 TS -23.0348 68.5875 main 1155 1153 _________PP___ -1 -23.0275 68.5923 TC 25 -23.0421 68.5828 1 13 188
1944050S10074 1944 15 SI MM NOT_NAMED 1944-02-23 00:00:00 TS -23.7062 68.4903 main 1166 1166 _________OP___ -1 -23.7000 68.5000 TC 25 -23.7124 68.4805 1 14 187
1944050S10074 1944 15 SI MM NOT_NAMED 1944-02-23 03:00:00 TS -24.3983 68.3954 main 1181 1181 _________PP___ -1 -24.3950 68.4028 TC 25 -24.4016 68.3881 1 14 187
1944050S10074 1944 15 SI MM NOT_NAMED 1944-02-23 06:00:00 TS -25.1000 68.3000 main 1201 _________OO___ -1 -25.1000 68.3000 TC 25 -25.1000 68.3000 1 14 187

IBTrACS Databaseについて

本データベースは、米国NOAAが公開する1842年以降の世界の熱帯低気圧のベストトラックデータアーカイブInternational Best Track Archive for Climate Stewardship (IBTrACS)を、ウェブで閲覧しやすい形式に変換したものです。

最終更新日:2021-10-27